LOT255 EPWA-EPKK
Flight info
| Callsign | LOT255 |
|---|---|
| Flight time | 0h 31m |
| Altitude | 20000 |
| Route | EVINA DCT KUKAM |
| Aircraft | B738/M-SDE2E3FGHIRWXY/LB1 |
Departure
| Time | 2026-04-30 21:42 |
|---|---|
| Airport | Warsaw Chopin Airport (EPWA) |
Arrival
| Time | 2026-04-30 22:13 |
|---|---|
| Airport | Kraków John Paul II International Airport (EPKK) |
| Time | Latitude | Longitude | Altitude | Speed | Heading |
|---|---|---|---|---|---|
| 2026-04-30 21:26 | 52.17049 | 20.97111 | 335 ft | 0 kts | 71° |
| 2026-04-30 21:34 | 52.17044 | 20.97089 | 332 ft | 2 kts | 70° |
| 2026-04-30 21:35 | 52.17038 | 20.97063 | 334 ft | 2 kts | 70° |
| 2026-04-30 21:35 | 52.17033 | 20.97038 | 330 ft | 2 kts | 69° |
| 2026-04-30 21:35 | 52.17027 | 20.97013 | 330 ft | 2 kts | 70° |
| 2026-04-30 21:35 | 52.17025 | 20.96987 | 331 ft | 2 kts | 109° |
| 2026-04-30 21:36 | 52.17032 | 20.96963 | 333 ft | 2 kts | 126° |
| 2026-04-30 21:36 | 52.17043 | 20.96944 | 330 ft | 2 kts | 142° |
| 2026-04-30 21:37 | 52.17045 | 20.96940 | 330 ft | 0 kts | 148° |
| 2026-04-30 21:39 | 52.17030 | 20.96956 | 334 ft | 8 kts | 148° |
| 2026-04-30 21:39 | 52.16946 | 20.97028 | 333 ft | 19 kts | 153° |
| 2026-04-30 21:39 | 52.16807 | 20.97148 | 335 ft | 24 kts | 152° |
| 2026-04-30 21:39 | 52.16664 | 20.97274 | 333 ft | 23 kts | 152° |
| 2026-04-30 21:40 | 52.16554 | 20.97441 | 333 ft | 22 kts | 115° |
| 2026-04-30 21:40 | 52.16492 | 20.97665 | 333 ft | 21 kts | 114° |
| 2026-04-30 21:40 | 52.16422 | 20.97802 | 334 ft | 12 kts | 177° |
| 2026-04-30 21:40 | 52.16349 | 20.97758 | 336 ft | 11 kts | 205° |
| 2026-04-30 21:41 | 52.16310 | 20.97665 | 334 ft | 11 kts | 279° |
| 2026-04-30 21:41 | 52.16378 | 20.97410 | 334 ft | 57 kts | 295° |
| 2026-04-30 21:41 | 52.16661 | 20.96409 | 336 ft | 134 kts | 294° |
| 2026-04-30 21:41 | 52.17134 | 20.94724 | 520 ft | 184 kts | 294° |
| 2026-04-30 21:42 | 52.17708 | 20.92798 | 1414 ft | 194 kts | 296° |
| 2026-04-30 21:42 | 52.18275 | 20.90806 | 2383 ft | 198 kts | 289° |
| 2026-04-30 21:42 | 52.18286 | 20.88436 | 2617 ft | 229 kts | 254° |
| 2026-04-30 21:42 | 52.17741 | 20.85909 | 3144 ft | 248 kts | 254° |
| 2026-04-30 21:43 | 52.17264 | 20.83079 | 3685 ft | 267 kts | 259° |
| 2026-04-30 21:43 | 52.16987 | 20.81116 | 4246 ft | 270 kts | 261° |
| 2026-04-30 21:43 | 52.16446 | 20.77071 | 5465 ft | 277 kts | 262° |
| 2026-04-30 21:43 | 52.16038 | 20.73978 | 6388 ft | 280 kts | 262° |
| 2026-04-30 21:44 | 52.15472 | 20.70941 | 7331 ft | 286 kts | 247° |
| 2026-04-30 21:44 | 52.14210 | 20.68371 | 8100 ft | 299 kts | 220° |
| 2026-04-30 21:44 | 52.12473 | 20.66433 | 8917 ft | 306 kts | 214° |
| 2026-04-30 21:44 | 52.10665 | 20.64548 | 9722 ft | 312 kts | 215° |
| 2026-04-30 21:45 | 52.08870 | 20.62512 | 10507 ft | 317 kts | 218° |
| 2026-04-30 21:45 | 52.07082 | 20.60277 | 10922 ft | 337 kts | 219° |
| 2026-04-30 21:45 | 52.05186 | 20.57834 | 11282 ft | 354 kts | 220° |
| 2026-04-30 21:45 | 52.03231 | 20.55318 | 11937 ft | 362 kts | 219° |
| 2026-04-30 21:46 | 52.01235 | 20.52774 | 12686 ft | 367 kts | 219° |
| 2026-04-30 21:46 | 51.99205 | 20.50211 | 13412 ft | 373 kts | 219° |
| 2026-04-30 21:46 | 51.97133 | 20.47607 | 14127 ft | 380 kts | 219° |
| 2026-04-30 21:46 | 51.94936 | 20.45180 | 14738 ft | 386 kts | 205° |
| 2026-04-30 21:47 | 51.92365 | 20.43958 | 15417 ft | 386 kts | 184° |
| 2026-04-30 21:47 | 51.89691 | 20.43516 | 16150 ft | 388 kts | 182° |
| 2026-04-30 21:47 | 51.86988 | 20.43159 | 16877 ft | 390 kts | 181° |
| 2026-04-30 21:47 | 51.84289 | 20.42810 | 17718 ft | 389 kts | 181° |
| 2026-04-30 21:48 | 51.81594 | 20.42441 | 18608 ft | 387 kts | 181° |
| 2026-04-30 21:48 | 51.78909 | 20.42055 | 19318 ft | 388 kts | 181° |
| 2026-04-30 21:48 | 51.76211 | 20.41653 | 19950 ft | 391 kts | 181° |
| 2026-04-30 21:48 | 51.73491 | 20.41242 | 20371 ft | 394 kts | 181° |
| 2026-04-30 21:49 | 51.70763 | 20.40826 | 20363 ft | 393 kts | 181° |
| 2026-04-30 21:49 | 51.68087 | 20.40417 | 20377 ft | 391 kts | 180° |
| 2026-04-30 21:49 | 51.65338 | 20.40000 | 20386 ft | 392 kts | 180° |
| 2026-04-30 21:49 | 51.62663 | 20.39596 | 20379 ft | 392 kts | 180° |
| 2026-04-30 21:50 | 51.59942 | 20.39185 | 20395 ft | 393 kts | 180° |
| 2026-04-30 21:50 | 51.57221 | 20.38774 | 20384 ft | 393 kts | 180° |
| 2026-04-30 21:50 | 51.54498 | 20.38363 | 20384 ft | 393 kts | 180° |
| 2026-04-30 21:50 | 51.51776 | 20.37952 | 20381 ft | 393 kts | 180° |
| 2026-04-30 21:51 | 51.49051 | 20.37541 | 20380 ft | 393 kts | 180° |
| 2026-04-30 21:51 | 51.46331 | 20.37131 | 20374 ft | 393 kts | 180° |
| 2026-04-30 21:51 | 51.43610 | 20.36722 | 20378 ft | 392 kts | 180° |
| 2026-04-30 21:51 | 51.40896 | 20.36315 | 20381 ft | 392 kts | 180° |
| 2026-04-30 21:52 | 51.38187 | 20.35800 | 20367 ft | 391 kts | 188° |
| 2026-04-30 21:52 | 51.35597 | 20.34644 | 20382 ft | 382 kts | 194° |
| 2026-04-30 21:52 | 51.33093 | 20.33306 | 20369 ft | 378 kts | 196° |
| 2026-04-30 21:52 | 51.30612 | 20.31935 | 20375 ft | 377 kts | 196° |
| 2026-04-30 21:53 | 51.28128 | 20.30571 | 20299 ft | 380 kts | 196° |
| 2026-04-30 21:53 | 51.26466 | 20.29673 | 20110 ft | 380 kts | 195° |
| 2026-04-30 21:53 | 51.23979 | 20.28348 | 20049 ft | 371 kts | 195° |
| 2026-04-30 21:53 | 51.21542 | 20.27067 | 20035 ft | 369 kts | 195° |
| 2026-04-30 21:54 | 51.19078 | 20.25787 | 19822 ft | 376 kts | 195° |
| 2026-04-30 21:54 | 51.16588 | 20.24501 | 19583 ft | 376 kts | 195° |
| 2026-04-30 21:54 | 51.14103 | 20.23220 | 19338 ft | 374 kts | 195° |
| 2026-04-30 21:54 | 51.11632 | 20.21948 | 19096 ft | 372 kts | 195° |
| 2026-04-30 21:55 | 51.09172 | 20.20684 | 18867 ft | 371 kts | 195° |
| 2026-04-30 21:55 | 51.06730 | 20.19430 | 18621 ft | 368 kts | 195° |
| 2026-04-30 21:55 | 51.04304 | 20.18185 | 18347 ft | 364 kts | 195° |
| 2026-04-30 21:55 | 51.01914 | 20.16960 | 18065 ft | 359 kts | 195° |
| 2026-04-30 21:56 | 50.99543 | 20.15748 | 17786 ft | 356 kts | 195° |
| 2026-04-30 21:56 | 50.97206 | 20.14552 | 17581 ft | 350 kts | 195° |
| 2026-04-30 21:56 | 50.94920 | 20.13385 | 17266 ft | 348 kts | 195° |
| 2026-04-30 21:56 | 50.92619 | 20.12212 | 16961 ft | 346 kts | 195° |
| 2026-04-30 21:57 | 50.90331 | 20.11046 | 16655 ft | 344 kts | 195° |
| 2026-04-30 21:57 | 50.88057 | 20.09889 | 16349 ft | 342 kts | 196° |
| 2026-04-30 21:57 | 50.85796 | 20.08739 | 16050 ft | 341 kts | 196° |
| 2026-04-30 21:57 | 50.83545 | 20.07596 | 15763 ft | 339 kts | 196° |
| 2026-04-30 21:58 | 50.81279 | 20.06659 | 15433 ft | 335 kts | 183° |
| 2026-04-30 21:58 | 50.78986 | 20.06763 | 15133 ft | 326 kts | 163° |
| 2026-04-30 21:58 | 50.76811 | 20.07645 | 14853 ft | 321 kts | 159° |
| 2026-04-30 21:58 | 50.74672 | 20.08643 | 14544 ft | 320 kts | 158° |
| 2026-04-30 21:59 | 50.72546 | 20.09659 | 14251 ft | 319 kts | 158° |
| 2026-04-30 21:59 | 50.70426 | 20.10666 | 13914 ft | 318 kts | 159° |
| 2026-04-30 21:59 | 50.68309 | 20.11659 | 13596 ft | 317 kts | 159° |
| 2026-04-30 22:00 | 50.64103 | 20.13601 | 12982 ft | 313 kts | 160° |
| 2026-04-30 22:00 | 50.59944 | 20.15500 | 12390 ft | 309 kts | 160° |
| 2026-04-30 22:00 | 50.57879 | 20.16438 | 12097 ft | 308 kts | 160° |
| 2026-04-30 22:01 | 50.55828 | 20.17368 | 11802 ft | 306 kts | 160° |
| 2026-04-30 22:01 | 50.53791 | 20.18291 | 11517 ft | 304 kts | 160° |
| 2026-04-30 22:01 | 50.51757 | 20.19211 | 11225 ft | 303 kts | 160° |
| 2026-04-30 22:01 | 50.49740 | 20.20122 | 10942 ft | 301 kts | 161° |
| 2026-04-30 22:02 | 50.47727 | 20.21031 | 10654 ft | 300 kts | 161° |
| 2026-04-30 22:02 | 50.45734 | 20.21929 | 10459 ft | 295 kts | 161° |
| 2026-04-30 22:02 | 50.43776 | 20.22811 | 10221 ft | 292 kts | 161° |
| 2026-04-30 22:02 | 50.41853 | 20.23676 | 9926 ft | 290 kts | 161° |
| 2026-04-30 22:03 | 50.39917 | 20.24547 | 9633 ft | 289 kts | 161° |
| 2026-04-30 22:03 | 50.37994 | 20.25412 | 9361 ft | 287 kts | 161° |
| 2026-04-30 22:03 | 50.36081 | 20.26271 | 9077 ft | 285 kts | 161° |
| 2026-04-30 22:03 | 50.34181 | 20.27124 | 8798 ft | 283 kts | 161° |
| 2026-04-30 22:04 | 50.32291 | 20.27972 | 8531 ft | 282 kts | 161° |
| 2026-04-30 22:04 | 50.30413 | 20.28814 | 8268 ft | 280 kts | 161° |
| 2026-04-30 22:04 | 50.26763 | 20.30445 | 8011 ft | 266 kts | 161° |
| 2026-04-30 22:05 | 50.25009 | 20.31227 | 7904 ft | 259 kts | 161° |
| 2026-04-30 22:05 | 50.23291 | 20.31952 | 7697 ft | 256 kts | 165° |
| 2026-04-30 22:05 | 50.21551 | 20.32528 | 7459 ft | 255 kts | 166° |
| 2026-04-30 22:05 | 50.19771 | 20.33091 | 6917 ft | 268 kts | 167° |
| 2026-04-30 22:06 | 50.17922 | 20.33395 | 6514 ft | 269 kts | 187° |
| 2026-04-30 22:06 | 50.15081 | 20.30422 | 5984 ft | 249 kts | 243° |
| 2026-04-30 22:06 | 50.14480 | 20.27940 | 5755 ft | 243 kts | 259° |
| 2026-04-30 22:07 | 50.14127 | 20.25377 | 5504 ft | 241 kts | 262° |
| 2026-04-30 22:07 | 50.13863 | 20.22804 | 5260 ft | 239 kts | 265° |
| 2026-04-30 22:07 | 50.13611 | 20.20247 | 5016 ft | 239 kts | 263° |
| 2026-04-30 22:07 | 50.13292 | 20.17715 | 4791 ft | 236 kts | 261° |
| 2026-04-30 22:08 | 50.12948 | 20.15255 | 4705 ft | 231 kts | 260° |
| 2026-04-30 22:08 | 50.12600 | 20.12813 | 4505 ft | 232 kts | 260° |
| 2026-04-30 22:08 | 50.12248 | 20.10343 | 4264 ft | 235 kts | 260° |
| 2026-04-30 22:08 | 50.11895 | 20.07856 | 4009 ft | 235 kts | 260° |
| 2026-04-30 22:09 | 50.11547 | 20.05400 | 3768 ft | 228 kts | 260° |
| 2026-04-30 22:09 | 50.11211 | 20.03031 | 3533 ft | 219 kts | 260° |
| 2026-04-30 22:09 | 50.10891 | 20.00762 | 3294 ft | 210 kts | 260° |
| 2026-04-30 22:09 | 50.10585 | 19.98597 | 3087 ft | 199 kts | 260° |
| 2026-04-30 22:10 | 50.10295 | 19.96532 | 2943 ft | 193 kts | 260° |
| 2026-04-30 22:10 | 50.10010 | 19.94499 | 2710 ft | 190 kts | 260° |
| 2026-04-30 22:10 | 50.09736 | 19.92548 | 2457 ft | 180 kts | 259° |
| 2026-04-30 22:10 | 50.09473 | 19.90675 | 2210 ft | 174 kts | 259° |
| 2026-04-30 22:11 | 50.08969 | 19.87068 | 1737 ft | 161 kts | 259° |
| 2026-04-30 22:11 | 50.08738 | 19.85417 | 1480 ft | 153 kts | 258° |
| 2026-04-30 22:11 | 50.08526 | 19.83825 | 1301 ft | 149 kts | 258° |
| 2026-04-30 22:12 | 50.08280 | 19.82246 | 1129 ft | 150 kts | 258° |
| 2026-04-30 22:12 | 50.08073 | 19.80662 | 939 ft | 149 kts | 258° |
| 2026-04-30 22:12 | 50.07867 | 19.79149 | 791 ft | 133 kts | 258° |
| 2026-04-30 22:12 | 50.07698 | 19.77927 | 786 ft | 94 kts | 257° |
| 2026-04-30 22:13 | 50.07592 | 19.77170 | 793 ft | 49 kts | 258° |
| 2026-04-30 22:13 | 50.07539 | 19.76874 | 795 ft | 18 kts | 229° |
| 2026-04-30 22:13 | 50.07425 | 19.76869 | 790 ft | 19 kts | 167° |
| 2026-04-30 22:13 | 50.07315 | 19.76919 | 788 ft | 11 kts | 130° |
| 2026-04-30 22:14 | 50.07316 | 19.77035 | 788 ft | 11 kts | 81° |
| 2026-04-30 22:14 | 50.07338 | 19.77187 | 788 ft | 18 kts | 76° |
| 2026-04-30 22:14 | 50.07369 | 19.77407 | 788 ft | 26 kts | 78° |
| 2026-04-30 22:14 | 50.07421 | 19.77776 | 788 ft | 43 kts | 77° |
| 2026-04-30 22:15 | 50.07484 | 19.78225 | 788 ft | 42 kts | 77° |
| 2026-04-30 22:15 | 50.07549 | 19.78687 | 788 ft | 43 kts | 78° |
| 2026-04-30 22:15 | 50.07598 | 19.79039 | 788 ft | 18 kts | 79° |
| 2026-04-30 22:15 | 50.07622 | 19.79226 | 788 ft | 17 kts | 77° |
| 2026-04-30 22:16 | 50.07649 | 19.79405 | 788 ft | 17 kts | 77° |
| 2026-04-30 22:16 | 50.07674 | 19.79578 | 788 ft | 16 kts | 78° |
| 2026-04-30 22:17 | 50.07434 | 19.79773 | 788 ft | 14 kts | 168° |
| 2026-04-30 22:17 | 50.07379 | 19.79866 | 788 ft | 14 kts | 80° |
| 2026-04-30 22:17 | 50.07385 | 19.80096 | 788 ft | 3 kts | 166° |
| 2026-04-30 22:18 | 50.07351 | 19.80100 | 788 ft | 7 kts | 169° |
| 2026-04-30 22:18 | 50.07329 | 19.80107 | 788 ft | 0 kts | 168° |